createdAt,value
2022-08-19T00:00:23.483Z,99471.80
2022-08-19T00:01:29.126Z,99478.73
2022-08-19T00:02:32.461Z,99479.27
2022-08-19T00:03:35.281Z,99479.42
2022-08-19T00:04:37.802Z,99478.19
2022-08-19T00:05:40.216Z,99477.06
2022-08-19T00:06:45.434Z,99474.27
2022-08-19T00:07:49.588Z,99478.19
2022-08-19T00:08:51.819Z,99486.52
2022-08-19T00:09:54.171Z,99484.29
2022-08-19T00:10:58.583Z,99481.80
2022-08-19T00:12:01.445Z,99482.47
2022-08-19T00:13:03.786Z,99484.29
2022-08-19T00:14:07.479Z,99480.97
2022-08-19T00:15:14.477Z,99484.59
2022-08-19T00:16:18.984Z,99487.37
2022-08-19T00:17:23.195Z,99487.64
2022-08-19T00:18:25.861Z,99488.35
2022-08-19T00:19:28.001Z,99502.27
2022-08-19T00:20:30.492Z,99495.88
2022-08-19T00:21:32.691Z,99489.17
2022-08-19T00:22:34.961Z,99496.56
2022-08-19T00:23:37.350Z,99499.33
2022-08-19T00:24:39.516Z,99496.03
2022-08-19T00:25:42.632Z,99497.70
2022-08-19T00:26:47.353Z,99488.76
2022-08-19T00:27:49.782Z,99493.78
2022-08-19T00:28:51.849Z,99486.69
2022-08-19T00:29:54.243Z,99488.52
2022-08-19T00:30:57.839Z,99486.42
2022-08-19T00:32:00.059Z,99487.66
2022-08-19T00:33:02.922Z,99484.76
2022-08-19T00:34:05.196Z,99483.23
2022-08-19T00:35:08.746Z,99486.14
2022-08-19T00:36:13.178Z,99480.71
2022-08-19T00:37:15.551Z,99486.95
2022-08-19T00:38:17.591Z,99484.77
2022-08-19T00:39:21.702Z,99483.64
2022-08-19T00:40:26.830Z,99480.86
2022-08-19T00:41:30.318Z,99482.37
2022-08-19T00:42:32.889Z,99483.23
2022-08-19T00:43:34.972Z,99480.03
2022-08-19T00:44:37.513Z,99480.03
2022-08-19T00:45:41.199Z,99481.27
2022-08-19T00:46:55.390Z,99484.05
2022-08-19T00:47:50.535Z,99483.09
2022-08-19T00:48:52.616Z,99486.14
2022-08-19T00:49:58.226Z,99488.78
2022-08-19T00:51:01.514Z,99491.42
2022-08-19T00:52:07.355Z,99484.88
2022-08-19T00:53:14.936Z,99486.55
2022-08-19T00:54:18.024Z,99490.45
2022-08-19T00:55:23.682Z,99490.16
2022-08-19T00:56:26.925Z,99491.56
2022-08-19T00:57:32.562Z,99487.66
2022-08-19T00:58:36.474Z,99481.41
2022-08-19T01:00:00.781Z,99492.95
2022-08-19T01:00:46.059Z,99486.28
2022-08-19T01:01:48.719Z,99498.52
2022-08-19T01:02:52.592Z,99490.16
2022-08-19T01:03:58.199Z,99491.55
2022-08-19T01:05:03.969Z,99499.59
2022-08-19T01:06:07.624Z,99504.05
2022-08-19T01:07:10.523Z,99497.09
2022-08-19T01:08:16.882Z,99497.66
2022-08-19T01:09:19.050Z,99499.33
2022-08-19T01:10:25.905Z,99499.60
2022-08-19T01:11:30.016Z,99493.64
2022-08-19T01:12:32.400Z,99491.55
2022-08-19T01:13:49.483Z,99491.40
2022-08-19T01:14:40.470Z,99489.30
2022-08-19T01:15:46.041Z,99490.08
2022-08-19T01:16:48.270Z,99490.08
2022-08-19T01:17:52.389Z,99494.39
2022-08-19T01:18:55.043Z,99494.80
2022-08-19T01:19:57.726Z,99488.13
2022-08-19T01:21:03.787Z,99488.13
2022-08-19T01:22:14.393Z,99493.68
2022-08-19T01:23:17.091Z,99495.64
2022-08-19T01:24:19.247Z,99495.36
2022-08-19T01:25:25.092Z,99494.39
2022-08-19T01:26:31.306Z,99493.68
2022-08-19T01:27:43.671Z,99492.55
2022-08-19T01:28:48.889Z,99490.87
2022-08-19T01:29:52.898Z,99501.32
2022-08-19T01:30:56.248Z,99495.56
2022-08-19T01:31:59.179Z,99494.98
2022-08-19T01:33:02.621Z,99490.82
2022-08-19T01:34:05.491Z,99487.22
2022-08-19T01:35:09.085Z,99495.13
2022-08-19T01:36:15.381Z,99487.25
2022-08-19T01:37:24.897Z,99487.25
2022-08-19T01:39:35.055Z,99484.04
2022-08-19T01:40:40.134Z,99489.69
2022-08-19T01:41:42.663Z,99486.22
2022-08-19T01:42:44.852Z,99485.55
2022-08-19T01:44:13.981Z,99488.29
2022-08-19T01:44:51.124Z,99480.98
2022-08-19T01:45:53.210Z,99489.61
2022-08-19T01:46:55.742Z,99484.08
2022-08-19T01:48:02.017Z,99476.17
2022-08-19T01:49:04.896Z,99476.17
2022-08-19T01:50:09.897Z,99488.50
2022-08-19T01:51:12.932Z,99481.34
2022-08-19T01:52:15.096Z,99481.34
2022-08-19T01:53:17.279Z,99485.09
2022-08-19T01:54:26.955Z,99479.66
2022-08-19T01:55:25.399Z,99482.05
2022-08-19T01:56:27.962Z,99474.36
2022-08-19T01:57:30.280Z,99474.36
2022-08-19T01:58:39.066Z,99486.90
2022-08-19T01:59:43.201Z,99478.27
2022-08-19T02:00:45.781Z,99481.70
2022-08-19T02:01:47.883Z,99477.38
2022-08-19T02:02:50.436Z,99479.06
2022-08-19T02:03:52.615Z,99482.50
2022-08-19T02:04:56.685Z,99480.36
2022-08-19T02:06:00.991Z,99475.09
2022-08-19T02:07:03.266Z,99479.55
2022-08-19T02:08:05.726Z,99479.55
2022-08-19T02:09:08.591Z,99474.84
2022-08-19T02:10:18.127Z,99479.41
2022-08-19T02:12:33.941Z,99478.62
2022-08-19T02:13:38.009Z,99477.48
2022-08-19T02:14:40.672Z,99483.19
2022-08-19T02:15:43.041Z,99478.81
2022-08-19T02:16:45.409Z,99473.17
2022-08-19T02:17:47.966Z,99487.31
2022-08-19T02:18:51.252Z,99483.19
2022-08-19T02:19:54.535Z,99477.91
2022-08-19T02:20:56.825Z,99474.06
2022-08-19T02:22:00.413Z,99483.51
2022-08-19T02:23:02.596Z,99478.23
2022-08-19T02:24:05.366Z,99478.34
2022-08-19T02:25:08.190Z,99478.62
2022-08-19T02:26:12.610Z,99477.66
2022-08-19T02:27:15.621Z,99480.02
2022-08-19T02:28:19.012Z,99476.95
2022-08-19T02:29:22.352Z,99479.59
2022-08-19T02:30:25.992Z,99469.04
2022-08-19T02:31:28.212Z,99463.77
2022-08-19T02:32:30.455Z,99469.61
2022-08-19T02:33:32.502Z,99473.35
2022-08-19T02:34:36.756Z,99471.95
2022-08-19T02:35:44.488Z,99479.59
2022-08-19T02:36:51.750Z,99477.34
2022-08-19T02:37:50.880Z,99474.02
2022-08-19T02:38:54.983Z,99476.23
2022-08-19T02:39:58.106Z,99476.81
2022-08-19T02:41:03.977Z,99477.38
2022-08-19T02:42:06.338Z,99468.51
2022-08-19T02:43:10.264Z,99469.24
2022-08-19T02:44:30.883Z,99467.27
2022-08-19T02:45:17.384Z,99472.30
2022-08-19T02:46:24.424Z,99474.27
2022-08-19T02:47:26.777Z,99473.31
2022-08-19T02:48:29.036Z,99479.55
2022-08-19T02:49:34.662Z,99478.72
2022-08-19T02:50:40.173Z,99481.08
2022-08-19T02:51:46.468Z,99480.78
2022-08-19T02:52:48.950Z,99480.89
2022-08-19T02:53:51.821Z,99479.55
2022-08-19T02:54:54.121Z,99484.00
2022-08-19T02:55:56.317Z,99479.22
2022-08-19T02:56:58.795Z,99481.74
2022-08-19T02:58:01.449Z,99480.07
2022-08-19T02:59:04.731Z,99487.12
2022-08-19T03:00:07.970Z,99484.48
2022-08-19T03:01:11.334Z,99481.17
2022-08-19T03:02:13.666Z,99473.07
2022-08-19T03:03:16.642Z,99473.07
2022-08-19T03:04:18.904Z,99479.79
2022-08-19T03:05:21.223Z,99480.36
2022-08-19T03:06:27.308Z,99474.27
2022-08-19T03:07:29.569Z,99486.49
2022-08-19T03:08:32.264Z,99481.61
2022-08-19T03:09:38.802Z,99487.54
2022-08-19T03:10:44.007Z,99485.73
2022-08-19T03:11:46.594Z,99485.59
2022-08-19T03:12:50.685Z,99483.94
2022-08-19T03:13:52.961Z,99485.73
2022-08-19T03:14:55.031Z,99482.84
2022-08-19T03:15:57.178Z,99481.41
2022-08-19T03:17:00.282Z,99489.90
2022-08-19T03:18:02.410Z,99486.16
2022-08-19T03:19:05.376Z,99486.44
2022-08-19T03:20:09.247Z,99485.15
2022-08-19T03:21:20.858Z,99484.63
2022-08-19T03:22:23.359Z,99489.52
2022-08-19T03:23:25.513Z,99487.59
2022-08-19T03:24:28.221Z,99483.23
2022-08-19T03:25:30.264Z,99492.29
2022-08-19T03:26:33.325Z,99487.84
2022-08-19T03:27:35.746Z,99483.66
2022-08-19T03:28:38.295Z,99491.19
2022-08-19T03:29:43.805Z,99489.27
2022-08-19T03:30:58.239Z,99489.27
2022-08-19T03:32:05.642Z,99486.78
2022-08-19T03:33:10.393Z,99485.91
2022-08-19T03:34:17.925Z,99485.64
2022-08-19T03:35:20.338Z,99488.98
2022-08-19T03:36:26.302Z,99493.88
2022-08-19T03:37:30.298Z,99494.84
2022-08-19T03:38:33.116Z,99499.29
2022-08-19T03:39:38.828Z,99497.61
2022-08-19T03:40:41.205Z,99500.39
2022-08-19T03:41:48.130Z,99502.12
2022-08-19T03:42:49.744Z,99502.26
2022-08-19T03:43:53.572Z,99505.47
2022-08-19T03:44:55.934Z,99503.41
2022-08-19T03:46:07.947Z,99510.08
2022-08-19T03:47:10.072Z,99518.18
2022-08-19T03:48:12.589Z,99515.69
2022-08-19T03:49:16.122Z,99511.52
2022-08-19T03:50:20.709Z,99514.01
2022-08-19T03:51:30.726Z,99516.50
2022-08-19T03:52:33.522Z,99515.98
2022-08-19T03:53:35.815Z,99512.52
2022-08-19T03:54:38.392Z,99513.05
2022-08-19T03:55:43.432Z,99508.93
2022-08-19T03:56:48.747Z,99507.25
2022-08-19T03:57:50.900Z,99513.24
2022-08-19T03:58:53.463Z,99512.00
2022-08-19T03:59:55.623Z,99519.75
2022-08-19T04:01:00.080Z,99517.36
2022-08-19T04:02:05.675Z,99519.17
2022-08-19T04:03:07.867Z,99515.82
2022-08-19T04:04:10.401Z,99524.75
2022-08-19T04:05:13.270Z,99523.79
2022-08-19T04:06:22.199Z,99528.67
2022-08-19T04:07:24.346Z,99536.78
2022-08-19T04:08:26.490Z,99534.83
2022-08-19T04:09:28.785Z,99541.00
2022-08-19T04:10:33.319Z,99547.67
2022-08-19T04:11:42.987Z,99542.16
2022-08-19T04:12:42.751Z,99548.25
2022-08-19T04:13:44.722Z,99544.22
2022-08-19T04:14:47.214Z,99550.20
2022-08-19T04:15:49.276Z,99542.92
2022-08-19T04:16:52.567Z,99549.05
2022-08-19T04:17:54.827Z,99542.21
2022-08-19T04:18:59.189Z,99548.20
2022-08-19T04:20:01.482Z,99551.11
2022-08-19T04:21:08.340Z,99544.84
2022-08-19T04:22:10.597Z,99547.62
2022-08-19T04:23:14.204Z,99547.95
2022-08-19T04:24:17.479Z,99553.23
2022-08-19T04:25:19.660Z,99553.66
2022-08-19T04:26:28.923Z,99556.97
2022-08-19T04:27:31.143Z,99552.37
2022-08-19T04:28:34.111Z,99545.89
2022-08-19T04:29:36.324Z,99550.45
2022-08-19T04:30:43.088Z,99548.53
2022-08-19T04:31:45.916Z,99542.16
2022-08-19T04:32:48.241Z,99548.00
2022-08-19T04:33:50.564Z,99548.82
2022-08-19T04:35:02.111Z,99551.59
2022-08-19T04:35:57.831Z,99547.56
2022-08-19T04:37:00.337Z,99553.09
2022-08-19T04:38:03.282Z,99552.37
2022-08-19T04:39:08.686Z,99552.95
2022-08-19T04:40:12.230Z,99554.05
2022-08-19T04:41:15.477Z,99554.77
2022-08-19T04:42:18.816Z,99553.52
2022-08-19T04:43:21.111Z,99561.77
2022-08-19T04:44:23.796Z,99548.34
2022-08-19T04:45:26.107Z,99554.00
2022-08-19T04:46:40.507Z,99548.34
2022-08-19T04:47:47.890Z,99544.22
2022-08-19T04:48:44.159Z,99546.33
2022-08-19T04:49:45.362Z,99549.92
2022-08-19T04:50:47.693Z,99542.72
2022-08-19T04:51:51.691Z,99543.41
2022-08-19T04:52:54.367Z,99544.40
2022-08-19T04:53:57.148Z,99543.87
2022-08-19T04:54:59.801Z,99545.80
2022-08-19T04:56:05.952Z,99549.14
2022-08-19T04:57:10.390Z,99546.22
2022-08-19T04:58:12.715Z,99546.94
2022-08-19T04:59:17.226Z,99546.80
2022-08-19T05:00:21.546Z,99546.69
2022-08-19T05:01:27.376Z,99546.41
2022-08-19T05:02:29.637Z,99549.36
2022-08-19T05:03:31.819Z,99543.66
2022-08-19T05:04:34.974Z,99547.30
2022-08-19T05:05:45.240Z,99549.47
2022-08-19T05:06:48.090Z,99552.39
2022-08-19T05:07:50.349Z,99561.27
2022-08-19T05:08:52.607Z,99551.97
2022-08-19T05:09:58.581Z,99557.49
2022-08-19T05:10:59.073Z,99553.03
2022-08-19T05:12:01.344Z,99558.02
2022-08-19T05:13:04.009Z,99555.20
2022-08-19T05:14:07.781Z,99562.97
2022-08-19T05:15:11.127Z,99560.66
2022-08-19T05:16:15.247Z,99545.55
2022-08-19T05:17:38.318Z,99558.64
2022-08-19T05:18:23.087Z,99561.70
2022-08-19T05:19:25.237Z,99555.89
2022-08-19T05:20:27.406Z,99552.72
2022-08-19T05:21:30.581Z,99559.30
2022-08-19T05:22:33.144Z,99559.16
2022-08-19T05:23:35.412Z,99561.80
2022-08-19T05:24:51.237Z,99560.13
2022-08-19T05:25:41.907Z,99557.66
2022-08-19T05:26:47.924Z,99561.43
2022-08-19T05:27:50.099Z,99563.25
2022-08-19T05:28:54.668Z,99561.72
2022-08-19T05:29:57.283Z,99557.41
2022-08-19T05:30:59.683Z,99563.67
2022-08-19T05:32:05.433Z,99563.67
2022-08-19T05:33:10.595Z,99560.20
2022-08-19T05:34:20.355Z,99562.70
2022-08-19T05:35:18.333Z,99564.95
2022-08-19T05:36:20.851Z,99564.80
2022-08-19T05:37:24.361Z,99566.87
2022-08-19T05:38:26.673Z,99573.27
2022-08-19T05:39:31.642Z,99572.16
2022-08-19T05:40:36.238Z,99578.83
2022-08-19T05:41:49.516Z,99576.89
2022-08-19T05:42:55.102Z,99577.60
2022-08-19T05:43:58.427Z,99580.81
2022-08-19T05:45:00.636Z,99577.77
2022-08-19T05:46:03.233Z,99583.88
2022-08-19T05:47:07.660Z,99578.89
2022-08-19T05:48:12.146Z,99574.42
2022-08-19T05:49:16.227Z,99580.27
2022-08-19T05:50:19.931Z,99574.02
2022-08-19T05:51:26.197Z,99574.69
2022-08-19T05:52:27.216Z,99576.92
2022-08-19T05:53:29.461Z,99579.98
2022-08-19T05:54:32.140Z,99582.52
2022-08-19T05:55:35.524Z,99577.23
2022-08-19T05:56:38.096Z,99577.23
2022-08-19T05:57:40.379Z,99580.43
2022-08-19T05:58:43.738Z,99578.20
2022-08-19T05:59:45.995Z,99582.23
2022-08-19T06:00:48.713Z,99576.67
2022-08-19T06:01:53.697Z,99573.63
2022-08-19T06:02:56.866Z,99577.38
2022-08-19T06:03:59.227Z,99581.11
2022-08-19T06:05:03.874Z,99578.62
2022-08-19T06:06:09.878Z,99582.11
2022-08-19T06:07:13.070Z,99576.38
2022-08-19T06:08:15.989Z,99581.55
2022-08-19T06:09:19.848Z,99582.78
2022-08-19T06:10:24.400Z,99576.13
2022-08-19T06:11:37.172Z,99590.30
2022-08-19T06:12:39.804Z,99579.73
2022-08-19T06:13:44.256Z,99594.48
2022-08-19T06:14:46.414Z,99592.13
2022-08-19T06:15:50.616Z,99592.86
2022-08-19T06:16:53.079Z,99595.91
2022-08-19T06:17:56.695Z,99595.91
2022-08-19T06:19:01.185Z,99597.03
2022-08-19T06:20:11.011Z,99605.11
2022-08-19T06:21:13.375Z,99603.13
2022-08-19T06:22:15.539Z,99595.61
2022-08-19T06:23:17.843Z,99602.30
2022-08-19T06:24:24.664Z,99604.24
2022-08-19T06:25:30.464Z,99603.99
2022-08-19T06:26:31.949Z,99592.85
2022-08-19T06:27:35.507Z,99600.91
2022-08-19T06:28:38.413Z,99598.70
2022-08-19T06:29:41.290Z,99600.62
2022-08-19T06:30:45.381Z,99597.28
2022-08-19T06:31:50.003Z,99597.72
2022-08-19T06:32:52.374Z,99589.78
2022-08-19T06:33:56.673Z,99598.69
2022-08-19T06:34:58.780Z,99592.13
2022-08-19T06:36:00.824Z,99584.49
2022-08-19T06:37:03.206Z,99586.70
2022-08-19T06:38:06.439Z,99583.08
2022-08-19T06:39:15.415Z,99585.86
2022-08-19T06:40:20.730Z,99585.86
2022-08-19T06:41:23.013Z,99588.64
2022-08-19T06:42:25.304Z,99583.47
2022-08-19T06:43:28.188Z,99587.77
2022-08-19T06:44:33.713Z,99586.37
2022-08-19T06:45:39.432Z,99577.45
2022-08-19T06:46:42.532Z,99584.97
2022-08-19T06:47:45.297Z,99576.06
2022-08-19T06:48:50.744Z,99577.70
2022-08-19T06:50:01.355Z,99578.40
2022-08-19T06:51:02.247Z,99568.55
2022-08-19T06:52:07.993Z,99575.75
2022-08-19T06:53:10.228Z,99569.64
2022-08-19T06:54:19.325Z,99575.75
2022-08-19T06:55:16.576Z,99575.88
2022-08-19T06:56:28.334Z,99572.41
2022-08-19T06:57:30.623Z,99570.31
2022-08-19T06:58:33.951Z,99570.77
2022-08-19T06:59:36.065Z,99571.70
2022-08-19T07:00:38.941Z,99573.50
2022-08-19T07:01:45.201Z,99574.90
2022-08-19T07:02:52.379Z,99573.23
2022-08-19T07:03:51.455Z,99574.34
2022-08-19T07:04:53.957Z,99572.40
2022-08-19T07:05:56.172Z,99579.05
2022-08-19T07:07:15.167Z,99566.52
2022-08-19T07:08:08.991Z,99571.70
2022-08-19T07:09:14.258Z,99582.84
2022-08-19T07:10:19.602Z,99582.45
2022-08-19T07:11:21.805Z,99588.13
2022-08-19T07:12:27.235Z,99587.16
2022-08-19T07:13:29.521Z,99582.45
2022-08-19T07:14:32.173Z,99590.66
2022-08-19T07:15:34.224Z,99586.45
2022-08-19T07:16:41.233Z,99593.03
2022-08-19T07:17:42.455Z,99583.11
2022-08-19T07:18:50.480Z,99586.73
2022-08-19T07:19:54.258Z,99590.78
2022-08-19T07:22:17.417Z,99589.10
2022-08-19T07:23:20.294Z,99597.47
2022-08-19T07:24:26.307Z,99591.45
2022-08-19T07:25:32.296Z,99591.59
2022-08-19T07:26:36.084Z,99592.69
2022-08-19T07:27:40.070Z,99592.52
2022-08-19T07:28:46.193Z,99598.48
2022-08-19T07:29:47.325Z,99591.77
2022-08-19T07:30:52.783Z,99593.13
2022-08-19T07:31:56.560Z,99596.58
2022-08-19T07:32:59.368Z,99593.49
2022-08-19T07:34:06.941Z,99601.00
2022-08-19T07:35:09.823Z,99591.62
2022-08-19T07:36:15.378Z,99592.55
2022-08-19T07:37:18.701Z,99599.67
2022-08-19T07:38:20.861Z,99603.11
2022-08-19T07:39:26.490Z,99601.55
2022-08-19T07:40:30.809Z,99600.95
2022-08-19T07:41:33.004Z,99605.66
2022-08-19T07:42:35.298Z,99593.78
2022-08-19T07:43:39.068Z,99600.91
2022-08-19T07:44:43.179Z,99605.35
2022-08-19T07:45:46.934Z,99599.17
2022-08-19T07:46:53.411Z,99604.03
2022-08-19T07:47:55.648Z,99602.05
2022-08-19T07:48:58.451Z,99595.93
2022-08-19T07:50:00.772Z,99594.64
2022-08-19T07:51:05.806Z,99595.77
2022-08-19T07:52:10.762Z,99592.14
2022-08-19T07:53:12.978Z,99583.75
2022-08-19T07:54:15.063Z,99583.16
2022-08-19T07:55:40.593Z,99579.23
2022-08-19T07:56:27.596Z,99579.23
2022-08-19T07:57:29.802Z,99588.45
2022-08-19T07:58:35.352Z,99584.25
2022-08-19T07:59:37.578Z,99584.25
2022-08-19T08:00:40.155Z,99581.31
2022-08-19T08:01:43.425Z,99582.30
2022-08-19T08:02:45.666Z,99589.27
2022-08-19T08:03:51.603Z,99588.95
2022-08-19T08:04:54.300Z,99594.09
2022-08-19T08:05:56.587Z,99591.44
2022-08-19T08:06:59.142Z,99593.96
2022-08-19T08:08:01.302Z,99600.41
2022-08-19T08:09:05.488Z,99598.58
2022-08-19T08:10:20.046Z,99608.57
2022-08-19T08:11:19.880Z,99608.66
2022-08-19T08:12:34.769Z,99611.68
2022-08-19T08:13:32.713Z,99610.78
2022-08-19T08:14:44.577Z,99604.54
2022-08-19T08:15:49.627Z,99598.63
2022-08-19T08:16:54.410Z,99602.28
2022-08-19T08:17:57.185Z,99604.94
2022-08-19T08:18:59.261Z,99599.38
2022-08-19T08:20:01.950Z,99599.38
2022-08-19T08:21:04.252Z,99593.25
2022-08-19T08:22:06.422Z,99600.73
2022-08-19T08:23:09.627Z,99593.78
2022-08-19T08:24:13.541Z,99606.42
2022-08-19T08:25:19.334Z,99596.80
2022-08-19T08:26:24.981Z,99593.22
2022-08-19T08:27:27.215Z,99597.94
2022-08-19T08:28:29.996Z,99602.75
2022-08-19T08:29:34.952Z,99598.59
2022-08-19T08:30:37.400Z,99596.63
2022-08-19T08:31:44.781Z,99588.72
2022-08-19T08:32:47.621Z,99597.34
2022-08-19T08:33:52.792Z,99601.72
2022-08-19T08:34:55.143Z,99598.59
2022-08-19T08:35:57.602Z,99595.77
2022-08-19T08:37:00.271Z,99591.78
2022-08-19T08:38:03.658Z,99590.93
2022-08-19T08:39:06.020Z,99601.41
2022-08-19T08:40:19.176Z,99594.10
2022-08-19T08:41:37.265Z,99599.28
2022-08-19T08:42:43.424Z,99601.81
2022-08-19T08:43:49.257Z,99604.48
2022-08-19T08:45:00.996Z,99605.13
2022-08-19T08:46:15.794Z,99606.09
2022-08-19T08:47:22.978Z,99613.08
2022-08-19T08:48:30.045Z,99603.44
2022-08-19T08:49:35.799Z,99609.09
2022-08-19T08:50:44.505Z,99610.44
2022-08-19T08:51:59.330Z,99615.75
2022-08-19T08:52:58.746Z,99611.80
2022-08-19T08:54:04.390Z,99604.99
2022-08-19T08:55:10.661Z,99612.95
2022-08-19T08:56:17.088Z,99610.14
2022-08-19T08:57:23.008Z,99622.42
2022-08-19T08:58:28.719Z,99616.64
2022-08-19T08:59:33.908Z,99612.50
2022-08-19T09:00:43.070Z,99619.82
2022-08-19T09:01:45.239Z,99624.53
2022-08-19T09:02:50.318Z,99621.13
2022-08-19T09:03:52.971Z,99619.64
2022-08-19T09:04:56.462Z,99618.98
2022-08-19T09:06:22.179Z,99612.55
2022-08-19T09:07:36.046Z,99621.53
2022-08-19T09:08:56.666Z,99613.09
2022-08-19T09:10:01.058Z,99613.11
2022-08-19T09:11:07.553Z,99616.80
2022-08-19T09:12:29.492Z,99622.11
2022-08-19T09:13:53.602Z,99628.13
2022-08-19T09:14:59.346Z,99618.48
2022-08-19T09:16:07.875Z,99621.78
2022-08-19T09:17:10.617Z,99617.98
2022-08-19T09:18:15.264Z,99627.95
2022-08-19T09:19:17.058Z,99618.45
2022-08-19T09:20:24.172Z,99619.80
2022-08-19T09:21:30.346Z,99619.48
2022-08-19T09:22:33.694Z,99620.30
2022-08-19T09:23:37.277Z,99616.81
2022-08-19T09:24:39.439Z,99619.13
2022-08-19T09:25:41.528Z,99620.30
2022-08-19T09:26:48.370Z,99617.77
2022-08-19T09:27:48.642Z,99621.45
2022-08-19T09:28:52.734Z,99608.14
2022-08-19T09:29:55.614Z,99620.96
2022-08-19T09:30:58.104Z,99618.45
2022-08-19T09:32:00.341Z,99615.11
2022-08-19T09:33:03.269Z,99615.97
2022-08-19T09:34:06.099Z,99608.66
2022-08-19T09:35:09.084Z,99615.16
2022-08-19T09:36:24.331Z,99609.16
2022-08-19T09:37:22.464Z,99619.13
2022-08-19T09:38:26.497Z,99617.13
2022-08-19T09:39:36.109Z,99616.78
2022-08-19T09:40:38.245Z,99614.12
2022-08-19T09:41:38.294Z,99619.45
2022-08-19T09:42:50.072Z,99616.64
2022-08-19T09:43:52.985Z,99615.47
2022-08-19T09:44:56.021Z,99620.45
2022-08-19T09:45:58.179Z,99619.11
2022-08-19T09:47:01.161Z,99617.09
2022-08-19T09:48:04.136Z,99624.11
2022-08-19T09:49:06.868Z,99621.13
2022-08-19T09:50:12.071Z,99630.27
2022-08-19T09:51:19.078Z,99622.10
2022-08-19T09:52:22.998Z,99631.44
2022-08-19T09:53:29.180Z,99631.94
2022-08-19T09:54:33.092Z,99640.06
2022-08-19T09:55:40.752Z,99642.44
2022-08-19T09:56:44.649Z,99641.26
2022-08-19T09:57:46.792Z,99637.41
2022-08-19T09:58:49.456Z,99638.42
2022-08-19T09:59:51.827Z,99642.44
2022-08-19T10:00:55.783Z,99643.73
2022-08-19T10:02:04.036Z,99649.08
2022-08-19T10:03:03.586Z,99648.09
2022-08-19T10:04:09.444Z,99648.41
2022-08-19T10:05:10.605Z,99648.23
2022-08-19T10:06:17.397Z,99653.41
2022-08-19T10:07:19.316Z,99652.06
2022-08-19T10:08:26.444Z,99647.41
2022-08-19T10:09:34.250Z,99651.06
2022-08-19T10:10:36.639Z,99657.71
2022-08-19T10:11:48.001Z,99651.39
2022-08-19T10:12:47.126Z,99656.05
2022-08-19T10:13:51.825Z,99657.04
2022-08-19T10:14:54.002Z,99650.72
2022-08-19T10:16:00.636Z,99653.06
2022-08-19T10:17:17.440Z,99651.89
2022-08-19T10:18:08.441Z,99652.39
2022-08-19T10:19:10.726Z,99652.06
2022-08-19T10:20:13.855Z,99651.74
2022-08-19T10:21:25.584Z,99646.23
2022-08-19T10:22:28.387Z,99647.73
2022-08-19T10:23:30.688Z,99645.08
2022-08-19T10:24:35.189Z,99644.75
2022-08-19T10:25:39.142Z,99645.05
2022-08-19T10:26:43.755Z,99643.42
2022-08-19T10:27:51.440Z,99648.40
2022-08-19T10:28:50.687Z,99630.42
2022-08-19T10:29:53.050Z,99646.22
2022-08-19T10:30:58.229Z,99637.70
2022-08-19T10:32:09.320Z,99635.45
2022-08-19T10:33:11.555Z,99633.59
2022-08-19T10:34:27.086Z,99632.63
2022-08-19T10:35:21.830Z,99631.06
2022-08-19T10:36:27.092Z,99626.73
2022-08-19T10:37:31.332Z,99631.59
2022-08-19T10:38:36.564Z,99638.33
2022-08-19T10:39:43.262Z,99633.16
2022-08-19T10:40:43.910Z,99639.03
2022-08-19T10:41:46.563Z,99640.55
2022-08-19T10:42:49.897Z,99641.63
2022-08-19T10:43:57.143Z,99635.22
2022-08-19T10:45:01.769Z,99638.23
2022-08-19T10:46:14.058Z,99642.84
2022-08-19T10:47:24.459Z,99639.66
2022-08-19T10:48:19.555Z,99643.45
2022-08-19T10:49:21.889Z,99646.48
2022-08-19T10:50:28.455Z,99646.48
2022-08-19T10:51:32.721Z,99653.67
2022-08-19T10:52:39.090Z,99651.00
2022-08-19T10:53:40.622Z,99642.48
2022-08-19T10:54:42.786Z,99649.48
2022-08-19T10:55:45.490Z,99647.41
2022-08-19T10:56:48.625Z,99658.11
2022-08-19T10:58:02.346Z,99654.11
2022-08-19T10:58:55.300Z,99655.81
2022-08-19T10:59:58.061Z,99667.81
2022-08-19T11:01:00.567Z,99659.45
2022-08-19T11:02:06.379Z,99666.08
2022-08-19T11:03:09.618Z,99662.08
2022-08-19T11:04:13.388Z,99667.93
2022-08-19T11:05:16.514Z,99667.93
2022-08-19T11:06:19.824Z,99668.78
2022-08-19T11:07:22.177Z,99664.78
2022-08-19T11:08:24.364Z,99664.48
2022-08-19T11:09:33.660Z,99671.52
2022-08-19T11:10:32.649Z,99676.84
2022-08-19T11:11:35.604Z,99675.18
2022-08-19T11:12:41.162Z,99677.18
2022-08-19T11:13:44.451Z,99679.81
2022-08-19T11:14:46.588Z,99684.75
2022-08-19T11:16:02.701Z,99681.08
2022-08-19T11:17:05.771Z,99674.75
2022-08-19T11:18:07.933Z,99676.48
2022-08-19T11:19:13.669Z,99677.91
2022-08-19T11:20:17.207Z,99674.63
2022-08-19T11:21:23.490Z,99678.71
2022-08-19T11:22:31.305Z,99691.44
2022-08-19T11:23:31.625Z,99688.45
2022-08-19T11:24:33.893Z,99674.59
2022-08-19T11:25:38.790Z,99684.15
2022-08-19T11:26:43.081Z,99687.93
2022-08-19T11:27:45.450Z,99679.91
2022-08-19T11:28:48.315Z,99683.95
2022-08-19T11:29:50.811Z,99681.91
2022-08-19T11:30:54.714Z,99683.23
2022-08-19T11:31:56.980Z,99674.57
2022-08-19T11:32:59.714Z,99665.09
2022-08-19T11:34:04.797Z,99674.59
2022-08-19T11:35:07.705Z,99677.23
2022-08-19T11:36:10.156Z,99677.05
2022-08-19T11:37:14.887Z,99682.96
2022-08-19T11:38:17.133Z,99678.92
2022-08-19T11:39:22.632Z,99672.29
2022-08-19T11:40:26.988Z,99678.26
2022-08-19T11:41:30.023Z,99674.77
2022-08-19T11:42:34.187Z,99675.95
2022-08-19T11:43:37.968Z,99677.53
2022-08-19T11:44:41.812Z,99676.71
2022-08-19T11:45:44.124Z,99673.91
2022-08-19T11:46:47.621Z,99679.77
2022-08-19T11:47:49.901Z,99678.10
2022-08-19T11:48:52.751Z,99682.28
2022-08-19T11:49:54.944Z,99680.92
2022-08-19T11:50:57.210Z,99676.67
2022-08-19T11:52:00.394Z,99675.23
2022-08-19T11:53:02.714Z,99678.78
2022-08-19T11:54:06.767Z,99674.48
2022-08-19T11:55:09.829Z,99684.20
2022-08-19T11:56:13.476Z,99681.59
2022-08-19T11:57:15.687Z,99683.30
2022-08-19T11:58:19.402Z,99694.47
2022-08-19T11:59:21.620Z,99689.99
2022-08-19T12:00:24.570Z,99685.98
2022-08-19T12:01:27.755Z,99688.70
2022-08-19T12:02:30.107Z,99693.03
2022-08-19T12:03:33.165Z,99690.16
2022-08-19T12:04:35.860Z,99688.98
2022-08-19T12:05:38.859Z,99692.00
2022-08-19T12:06:41.470Z,99689.34
2022-08-19T12:07:43.576Z,99686.35
2022-08-19T12:08:46.993Z,99687.34
2022-08-19T12:09:49.305Z,99697.98
2022-08-19T12:10:52.593Z,99694.33
2022-08-19T12:11:55.057Z,99704.98
2022-08-19T12:12:59.050Z,99698.99
2022-08-19T12:14:01.521Z,99701.16
2022-08-19T12:15:04.291Z,99704.97
2022-08-19T12:16:13.099Z,99704.97
2022-08-19T12:17:15.080Z,99691.19
2022-08-19T12:18:17.827Z,99697.64
2022-08-19T12:19:22.416Z,99703.97
2022-08-19T12:20:24.899Z,99703.81
2022-08-19T12:21:28.298Z,99709.45
2022-08-19T12:22:30.861Z,99702.31
2022-08-19T12:23:33.449Z,99712.64
2022-08-19T12:24:35.681Z,99706.47
2022-08-19T12:25:40.148Z,99706.47
2022-08-19T12:26:52.765Z,99694.81
2022-08-19T12:27:56.754Z,99702.94
2022-08-19T12:28:51.436Z,99701.77
2022-08-19T12:29:53.645Z,99705.60
2022-08-19T12:30:57.285Z,99712.25
2022-08-19T12:32:00.104Z,99703.54
2022-08-19T12:33:02.773Z,99717.83
2022-08-19T12:34:04.874Z,99711.52
2022-08-19T12:35:08.498Z,99711.89
2022-08-19T12:36:14.227Z,99706.57